Colorado AWOS List, Phone Numbers, Maps

USA |  
| Search AWOS

Rocky Mountain States: Montana | Wyoming | Colorado | New Mexico

Complete weather reports: Colorado

Legend: KFNL = METAR available Follow your local AWOS on AV Mobile = METAR available on AV Mobile
Station Colorado Location Frequency Phone
KAKOFAA ID AKO, ASOS, KAKO 220053Z AUTO 07004KT 10SM CLR 01/M04 A2950 RMK AO2 SLP009 T00111039 Follow KAKO on AV Mobile COLORADO PLAINS REGIONAL 135.475 970-345-2320
KALSFAA ID ALS, ASOS, KALS 220052Z AUTO 00000KT 10SM BKN070 OVC085 M04/M05 A2951 Follow KALS on AV Mobile SAN LUIS VALLEY REGIONAL 135.175 719-589-5669
KASEFAA ID ASE, ASOS, KASE 220105Z 33003KT 2SM -SN BR OVC013 M03/M04 A2956 Follow KASE on AV Mobile ASPEN-PITKIN COUNTY AIRPORT 120.400 970-925-9168
KBKFFAA ID BKF, KBKF 220058Z 34005KT 10SM SCT080 BKN200 00/M03 A2951 Follow KBKF on AV Mobile Aurora, Buckley Air Force Base Airport
K7BMFAA ID 7BM, AWOS-3, K7BM 220135Z AUTO 26012G17KT 220V290 10SM SCT041 SCT049 BKN110 M02/M10 A2953 RMK AO2 Follow K7BM on AV Mobile Cottonwood Pass 132.050 303-512-4919
KBDUFAA ID BDU, AWOS-3, KBDU 220136Z AUTO 00000KT 10SM SCT050 BKN075 OVC110 02/M03 A2953 RMK AO2 Follow KBDU on AV Mobile Boulder Municipal Airport 118.825 303-541-9540
KAEJFAA ID AEJ, AWOS-3, KAEJ 220135Z AUTO 26003KT 10SM CLR M09/M10 A2953 RMK AO2 T10871101 Follow KAEJ on AV Mobile Central Colorado Regional Airport 132.925 719-395-2599
KITRFAA ID ITR, ASOS, KITR 220053Z AUTO 03007KT 10SM CLR 02/M01 A2947 RMK AO2 SLP989 T00221006 Follow KITR on AV Mobile Kit Carson County Airport 135.225 719-346-7036
K1V6FAA ID 1V6, AWOS-3, K1V6 220135Z AUTO 35004KT 10SM OVC090 02/M01 A2951 RMK AO2 Follow K1V6 on AV Mobile CANON CITY 120.025
KAFFFAA ID AFF, KAFF 220058Z AUTO 36007KT 10SM OVC075 00/M07 A2948 RMK AO2 SLP017 T00001069 Follow KAFF on AV Mobile Air Force Academy
KCOSFAA ID COS, ASOS, KCOS 220054Z 01005KT 10SM SCT044 SCT110 SCT160 BKN250 00/M05 A2949 Follow KCOS on AV Mobile COLORADO SPRINGS MUNI 125.000 719-637-9696
KFLYFAA ID FLY, AWOS-3PT, KFLY 220035Z AUTO 33005KT 10SM OVC032 00/M06 A2948 RMK AO2 T10021057 Follow KFLY on AV Mobile Meadowlake Airport, Peyton, CO 118.450 719-683-5371
KCCUFAA ID CCU, AWOS-3, KCCU 220135Z AUTO 1 1/2SM -SN OVC001 M07/M10 A2954 RMK AO2 Follow KCCU on AV Mobile Copper Mountain, Red Cliff Pass 118.075 970-968-1715
KCEZFAA ID CEZ, ASOS, KCEZ 220124Z AUTO 28012G19KT 3SM -SN BR BKN020 OVC027 01/M01 A2970 RMK AO2 SNB04 P0000 T00061011 Follow KCEZ on AV Mobile CORTEZ MONTEZUMA COUNTY AIRPORT 135.625 970-564-0193
KCAGFAA ID CAG, ASOS, KCAG 220131Z AUTO 24013KT 2SM -SN FEW028 OVC042 M03/M06 A2966 Follow KCAG on AV Mobile CRAIG MOFFAT AIRPORT 135.425 970-824-2373
KRCVFAA ID RCV, AWOS-3PT, KRCV 220130Z AUTO 28011KT 10SM OVC110 M03/M08 A2954 RMK AO2 T10291078 Follow KRCV on AV Mobile DEL NORTE 118.275 719-657-9017
KAJZFAA ID AJZ, AWOS-3, KAJZ 220135Z AUTO 24017KT 10SM SCT042 SCT050 SCT060 02/00 A2965 RMK AO2 T00220003 Follow KAJZ on AV Mobile Blake Field Airport 134.000 970-874-3251
KDNRICAO ID KDNR Denver / Stapleton International, Co.
KAPAFAA ID APA, ASOS, KAPA 220053Z 33004KT 10SM BKN085 BKN180 01/M05 A2950 RMK AO2 SLP015 T00061050 Follow KAPA on AV Mobile DENVER CENTENNIAL AIRPORT 120.300 303-706-9098
KDENFAA ID DEN, ASOS, KDEN 220053Z 29004KT 10SM FEW110 BKN150 BKN220 02/M04 A2950 Follow KDEN on AV Mobile DENVER INTERNATIONAL AIRPORT 125.600 303-342-0838
KFTGFAA ID FTG, AWOS-3, KFTG 220050Z 31003KT 10SM BKN120 02/M02 A2951 Follow KFTG on AV Mobile Front Range Airport 119.025 303-261-9104
KBJCFAA ID BJC, AWOS-3, KBJC 220047Z 35005KT 30SM SCT080 BKN150 02/M03 A2950 Follow KBJC on AV Mobile Rocky Mountain Metro Airport 126.250 720-887-8067
K4V5ICAO ID K4V5 Durango Aviation Weather Reporting Station
KDROFAA ID DRO, ASOS, KDRO 220053Z AUTO 26014KT 10SM CLR M02/M05 A2959 RMK AO2 PK WND 26026/2354 SLP040 T10171050 $ Follow KDRO on AV Mobile DURANGO-LA PLATA COUNTY AIRPORT 120.625 970-259-3579
KEGEFAA ID EGE, AWOS-3, KEGE 220050Z 00000KT 2SM -SN BR BKN018 OVC024 M02/M03 A2960 Follow KEGE on AV Mobile Eagle County Regional 135.575 970-524-7386
CO90FAA ID CO90, ASOS, KRCM 220225Z AUTO 00000KT 10SM OVC075 08/06 A2952 RMK AO2 Follow  on AV Mobile USAF Academy Bullseye Aux Airstrip 118.325 719-683-3346
K0COFAA ID 0CO, AWOS-3, K0CO 130656Z AUTO SCT014 BKN065 OVC100 M11/M17 A3010 RMK AO2 PWINO Follow K0CO on AV Mobile EMPIRE 134.325
KEIKFAA ID EIK, AWOS-3, KEIK 220134Z AUTO 00000KT 10SM SCT065 SCT075 OVC090 01/M02 A2954 RMK AO2 T00071022 Follow KEIK on AV Mobile Erie Municipal Airport 133.825 303-604-4339
KFCSFAA ID FCS, KFCS 220058Z AUTO 31005KT 10SM SCT047 00/M05 A2947 RMK AO2 SLP023 T10031054 Follow KFCS on AV Mobile Fort Carson
KFCLICAO ID KFCL Fort Collins Supplementary Aviation Weather Reporting Station
KFNLFAA ID FNL, AWOS-3, KFNL 220135Z AUTO 00000KT 10SM CLR 00/M03 A2955 RMK AO1 Follow KFNL on AV Mobile Fort Collins/Loveland, Fort Collins-Loveland Municipal Airport 135.075 970-669-9187
KFMMFAA ID FMM, AWOS-3, KFMM 220135Z AUTO 03005KT 10SM CLR 00/M04 A2954 RMK AO2 T00001045 Follow KFMM on AV Mobile Fort Morgan Municipal Airport 132.950 970-867-4823
KGNBFAA ID GNB, AWOS-3PT Granby-Grand County Airport 119.925 970-887-1803
KGJTFAA ID GJT, ASOS, KGJT 220053Z 34007KT 10SM FEW014 BKN060 OVC095 01/01 A2965 Follow KGJT on AV Mobile GRAND JUNCTION WALKER FIELD 118.550 970-245-7881
KGXYFAA ID GXY, AWOS-3, KGXY 220056Z AUTO 35006KT 10SM CLR M02/M03 A2953 RMK AO2 SLP039 T10171033 FZRANO Follow KGXY on AV Mobile Greeley, Greeley-Weld County Airport 135.175 970-352-3511
K2V9ICAO ID K2V9 Gunnison Aviation Weather Reporting Station
KGUCFAA ID GUC, AWOS-3, KGUC 220056Z AUTO 03004KT 10SM OVC012 M06/M09 A2958 RMK AO2 SNE33 SLP078 P0000 T10611089 FZRANO Follow KGUC on AV Mobile Gunnison, Gunnison-Crested Butte Regional Airport 135.075 970-641-3240
KHDNFAA ID HDN, AWOS-3, KHDN 220135Z AUTO 28013KT 5SM FEW004 BKN110 M04/M07 A2963 RMK AO1 Follow KHDN on AV Mobile Hayden, Yampa Valley Airport 119.275 970-276-3690
KHEQFAA ID HEQ, AWOS-3, KHEQ 220135Z AUTO 02006KT 10SM CLR 01/M02 A2954 RMK AO2 Follow KHEQ on AV Mobile Holyoke Airport 119.275 970-854-3679
K20VFAA ID 20V, AWOS-3, K20V 220135Z AUTO 00000KT 7SM -SN SCT026 BKN035 OVC110 M06/M08 A2961 RMK AO2 Follow K20V on AV Mobile Kremmling, Mc Elroy Airfield 118.425 970-724-9659
KLHXFAA ID LHX, ASOS, KLHX 220053Z AUTO 23007KT 10SM OVC085 01/M01 A2945 RMK AO2 SLP984 T00061011 $ Follow KLHX on AV Mobile LA JUNTA MUNICIPAL AIRPORT 135.525 719-384-5961
KVTPFAA ID VTP, AWOS-3, KVTP 220127Z AUTO 04020G26KT 1 3/4SM -SN BKN002 OVC009 M07/M08 A2949 RMK AO2 Follow KVTP on AV Mobile La Veta Mountain, La Veta Pass 119.925 719-587-3120
KLAAFAA ID LAA, ASOS, KLAA 220133Z AUTO 23003KT 10SM OVC030 01/M01 A2944 RMK AO2 T00061011 TSNO Follow KLAA on AV Mobile LAMAR MUNICIPAL AIRPORT 135.625 719-336-3854
KLXVFAA ID LXV, ASOS, KLXV 220104Z AUTO 31007KT 1 3/4SM -SN BR BKN022 OVC042 M07/M09 A2951 Follow KLXV on AV Mobile LEADVILLE LAKE CO 118.375 719-486-2735
KLICFAA ID LIC, ASOS, KLIC 220055Z AUTO 35003KT 10SM OVC100 M01/M03 A2949 RMK AO2 SLP000 T10111028 Follow KLIC on AV Mobile LIMON MUNICIPAL AIRPORT 121.125 719-775-0515
KLMOFAA ID LMO, AWOS-3, KLMO 220133Z AUTO 31004KT 10SM SCT075 BKN120 01/M02 A2956 RMK AO2 T00121024 Follow KLMO on AV Mobile Vance Brand Airport 120.000 303-684-7545
KEEOFAA ID EEO, ASOS, KEEO 220053Z AUTO 24008KT 2SM -SN BR FEW010 SCT023 OVC029 M02/M03 A2962 RMK AO2 SLP055 P0000 T10171033 Follow KEEO on AV Mobile MEEKER AIRPORT 135.525 970-878-5036
KMYPFAA ID MYP, AWOS-3, KMYP 220135Z AUTO 28004KT OVC001 M11/M12 A2964 RMK AO2 PWINO Follow KMYP on AV Mobile Salida Mountain, Monarch Pass 124.175 719-539-4436
KMTJFAA ID MTJ, ASOS, KMTJ 220053Z AUTO 07003KT 4SM -SN BR OVC014 01/00 A2965 RMK AO2 SNE02B46 SLP035 P0000 T00060000 Follow KMTJ on AV Mobile MONTROSE REGIONAL AIRPORT 135.225 970-249-1534
KMNHFAA ID MNH, AWOS-3, KMNH 220136Z AUTO 29005KT 10SM CLR M04/M06 A2953 RMK AO2 Follow KMNH on AV Mobile Elbert Mountain, Monument Pass 134.375 303-648-3479
KCRVICAO ID KCRV Nederland Mountain, Corona Pass
KAIBFAA ID AIB, AWOS-3, KAIB 220135Z AUTO 00000KT 10SM OVC060 00/M01 A2973 RMK AO2 Follow KAIB on AV Mobile Hopkins Field Airport 132.525 970-864-2325
KPSOFAA ID PSO, AWOS-3, KPSO 220135Z AUTO 23005KT 10SM CLR M03/M04 A2961 RMK AO2 T10321039 Follow KPSO on AV Mobile Stevens Field Airport 127.175 970-731-0365
KPEFICAO ID KPEF Peterson Air Force Base
KPUXICAO ID KPUX Pueblo NEXRAD
KPUBFAA ID PUB, ASOS, KPUB 220053Z 00000KT 10SM CLR 03/M02 A2947 Follow KPUB on AV Mobile PUEBLO MEMORIAL AIRPORT 125.250 719-948-2803
4V0FAA ID 4V0, AWOS-3PT, KRCM 220225Z AUTO 00000KT 10SM OVC075 08/06 A2952 RMK AO2 Follow  on AV Mobile RANGELY 119.025 970-675-2339
K1V1ICAO ID K1V1 Rifle Aviation Weather Reporting Station
KRILFAA ID RIL, ASOS, KRIL 220102Z AUTO 28006KT 5SM -SN BR SCT004 SCT012 OVC040 01/00 A2962 RMK AO2 P0000 T00060000 Follow KRIL on AV Mobile RIFLE GARFIELD COUNTY RGNL 135.275 970-625-2206
K04VFAA ID 04V, AWOS-3, K04V 220135Z AUTO 36006KT 10SM OVC110 M03/M07 A2955 RMK AO2 Follow K04V on AV Mobile Saguache, Saguache Municipal Airport 118.625 719-655-2229
KS29ICAO ID KS29 Salida
KANKFAA ID ANK, AWOS-3, KANK 220135Z AUTO 00000KT 10SM SCT100 M01/M05 A2960 RMK AO1 T10141049 Follow KANK on AV Mobile Harriet Alexander Field Airport 133.850 719-539-5268
KSPDICAO ID KSPD, KSPD 220056Z AUTO 34014KT 02/M01 A2939 RMK AO1 SLP957 T00171011 $ Follow KSPD on AV Mobile SPRINGFIELD COMANCHE NATL
KSBSFAA ID SBS, AWOS-3, KSBS 220134Z AUTO 22008KT 4SM BKN015 OVC023 M03/M04 A2961 RMK AO1 T10321042 Follow KSBS on AV Mobile Steamboat Springs 118.325 970-879-7794
KSTKFAA ID STK, AWOS-3, KSTK 220110Z AUTO 00000KT 10SM CLR 01/M02 A2951 RMK AO2 Follow KSTK on AV Mobile Sterling Municipal Airport 118.525 970-526-3009
K5SMFAA ID 5SM, AWOS-3, K5SM 220135Z AUTO OVC002 M08/M10 A2963 RMK AO2 PWINO TSNO Follow K5SM on AV Mobile Sunlight 126.075 970-384-3380
KTEXFAA ID TEX, AWOS-3, KTEX 211715Z AUTO 00000KT 4SM -SN SCT011 SCT016 OVC023 M04/M05 A2936 RMK AO2 T10371051 Follow KTEX on AV Mobile Telluride, Telluride Regional Airport 118.325 970-728-1534
KTADFAA ID TAD, ASOS, KTAD 220054Z AUTO 9SM SCT065 OVC095 00/M03 A2945 RMK AO2 SLP988 T00001033 Follow KTAD on AV Mobile Trinidad, Perry Stokes Airport 119.025 719-845-1156
K33VFAA ID 33V, AWOS-3, K33V 220135Z AUTO 10003KT 2 1/2SM M08/M10 A2959 RMK AO2 Follow K33V on AV Mobile WALDEN 118.625 970-723-4513
4V1FAA ID 4V1, AWOS-3, KRCM 220225Z AUTO 00000KT 10SM OVC075 08/06 A2952 RMK AO2 Follow  on AV Mobile Spanish Peaks Airfield 123.600 719-738-1053
K4BMFAA ID 4BM, AWOS-3, K4BM 220135Z AUTO 34005KT 10SM SCT018 BKN035 OVC080 M08/M11 A2955 RMK AO2 Follow K4BM on AV Mobile Wilkerson Pass 132.3 303-512-4418
KC96ICAO ID KC96 Winter Park Resort
KCPWFAA ID CPW, AWOS-3, KCPW 220134Z AUTO 22009KT OVC001 M12/M12 A2961 RMK AO2 PWINO Follow KCPW on AV Mobile Pagosa Springs, Wolf Creek Pass 121.125 970-264-2180
K2V5FAA ID 2V5, AWOS-3, K2V5 220115Z AUTO 00000KT 10SM CLR 01/M02 A2951 RMK AO2 Follow K2V5 on AV Mobile Wray Municipal Airport 118.250 970-332-5930
K2V6FAA ID 2V6, AWOS-3, K2V6 220134Z AUTO 02004KT 10SM CLR 00/M03 A2952 RMK AO2 Follow K2V6 on AV Mobile YUMA 135.375 970-848-3007

Click on the AV Mobile icon AV Mobile icon by any station to follow that AWOS feed on AirportView.net Mobile.

Legend: Commercial service airport with AWOS Commercial Airport AWOSNon-Commercial service airport with AWOS Non-Commercial Airport AWOS
Airport AWOS - Click symbol for weather report Fort Morgan Municipal Airport KFMM 220135Z AUTO 03005KT 10SM CLR 00/M04 A2954 RMK AO2 T00001045 Hopkins Field Airport KAIB 220135Z AUTO 00000KT 10SM OVC060 00/M01 A2973 RMK AO2 Telluride, Telluride Regional Airport KTEX 211715Z AUTO 00000KT 4SM -SN SCT011 SCT016 OVC023 M04/M05 A2936 RMK AO2 T10371051 Greeley, Greeley-Weld County Airport KGXY 220056Z AUTO 35006KT 10SM CLR M02/M03 A2953 RMK AO2 SLP039 T10171033 FZRANO Front Range Airport KFTG 220050Z 31003KT 10SM BKN120 02/M02 A2951 Rocky Mountain Metro Airport KBJC 220047Z 35005KT 30SM SCT080 BKN150 02/M03 A2950 DENVER CENTENNIAL AIRPORT KAPA 220053Z 33004KT 10SM BKN085 BKN180 01/M05 A2950 RMK AO2 SLP015 T00061050 DENVER INTERNATIONAL AIRPORT KDEN 220053Z 29004KT 10SM FEW110 BKN150 BKN220 02/M04 A2950 Fort Collins/Loveland, Fort Collins-Loveland Municipal Airport KFNL 220135Z AUTO 00000KT 10SM CLR 00/M03 A2955 RMK AO1 Boulder Municipal Airport KBDU 220136Z AUTO 00000KT 10SM SCT050 BKN075 OVC110 02/M03 A2953 RMK AO2 Vance Brand Airport KLMO 220133Z AUTO 31004KT 10SM SCT075 BKN120 01/M02 A2956 RMK AO2 T00121024 Sterling Municipal Airport KSTK 220110Z AUTO 00000KT 10SM CLR 01/M02 A2951 RMK AO2 Holyoke Airport KHEQ 220135Z AUTO 02006KT 10SM CLR 01/M02 A2954 RMK AO2 COLORADO PLAINS REGIONAL KAKO 220053Z AUTO 07004KT 10SM CLR 01/M04 A2950 RMK AO2 SLP009 T00111039 Kit Carson County Airport KITR 220053Z AUTO 03007KT 10SM CLR 02/M01 A2947 RMK AO2 SLP989 T00221006 LIMON MUNICIPAL AIRPORT KLIC 220055Z AUTO 35003KT 10SM OVC100 M01/M03 A2949 RMK AO2 SLP000 T10111028 COLORADO SPRINGS MUNI KCOS 220054Z 01005KT 10SM SCT044 SCT110 SCT160 BKN250 00/M05 A2949 LAMAR MUNICIPAL AIRPORT KLAA 220133Z AUTO 23003KT 10SM OVC030 01/M01 A2944 RMK AO2 T00061011 TSNO LA JUNTA MUNICIPAL AIRPORT KLHX 220053Z AUTO 23007KT 10SM OVC085 01/M01 A2945 RMK AO2 SLP984 T00061011 $ Trinidad, Perry Stokes Airport KTAD 220054Z AUTO 9SM SCT065 OVC095 00/M03 A2945 RMK AO2 SLP988 T00001033 PUEBLO MEMORIAL AIRPORT KPUB 220053Z 00000KT 10SM CLR 03/M02 A2947 CANON CITY 1V6 SAN LUIS VALLEY REGIONAL KALS 220052Z AUTO 00000KT 10SM BKN070 OVC085 M04/M05 A2951 Saguache, Saguache Municipal Airport K04V 220135Z AUTO 36006KT 10SM OVC110 M03/M07 A2955 RMK AO2 Granby-Grand County Airport KGNB WALDEN 33V Steamboat Springs KSBS 220134Z AUTO 22008KT 4SM BKN015 OVC023 M03/M04 A2961 RMK AO1 T10321042 Hayden, Yampa Valley Airport KHDN 220135Z AUTO 28013KT 5SM FEW004 BKN110 M04/M07 A2963 RMK AO1 Kremmling, Mc Elroy Airfield K20V 220135Z AUTO 00000KT 7SM -SN SCT026 BKN035 OVC110 M06/M08 A2961 RMK AO2 LEADVILLE LAKE CO KLXV 220104Z AUTO 31007KT 1 3/4SM -SN BR BKN022 OVC042 M07/M09 A2951 Eagle County Regional KEGE 220050Z 00000KT 2SM -SN BR BKN018 OVC024 M02/M03 A2960 CRAIG MOFFAT AIRPORT KCAG 220131Z AUTO 24013KT 2SM -SN FEW028 OVC042 M03/M06 A2966 MEEKER AIRPORT KEEO 220053Z AUTO 24008KT 2SM -SN BR FEW010 SCT023 OVC029 M02/M03 A2962 RMK AO2 SLP055 P0000 T10171033 ASPEN-PITKIN COUNTY AIRPORT KASE 220105Z 33003KT 2SM -SN BR OVC013 M03/M04 A2956 Gunnison, Gunnison-Crested Butte Regional Airport KGUC 220056Z AUTO 03004KT 10SM OVC012 M06/M09 A2958 RMK AO2 SNE33 SLP078 P0000 T10611089 FZRANO DURANGO-LA PLATA COUNTY AIRPORT  KDRO 220053Z AUTO 26014KT 10SM CLR M02/M05 A2959 RMK AO2 PK WND 26026/2354 SLP040 T10171050 $ Stevens Field Airport KPSO 220135Z AUTO 23005KT 10SM CLR M03/M04 A2961 RMK AO2 T10321039 CORTEZ MONTEZUMA COUNTY AIRPORT  KCEZ 220124Z AUTO 28012G19KT 3SM -SN BR BKN020 OVC027 01/M01 A2970 RMK AO2 SNB04 P0000 T00061011 MONTROSE REGIONAL AIRPORT KMTJ 220053Z AUTO 07003KT 4SM -SN BR OVC014 01/00 A2965 RMK AO2 SNE02B46 SLP035 P0000 T00060000 RIFLE GARFIELD COUNTY RGNL KRIL 220102Z AUTO 28006KT 5SM -SN BR SCT004 SCT012 OVC040 01/00 A2962 RMK AO2 P0000 T00060000 GRAND JUNCTION WALKER FIELD KGJT 220053Z 34007KT 10SM FEW014 BKN060 OVC095 01/01 A2965 Blake Field Airport KAJZ 220135Z AUTO 24017KT 10SM SCT042 SCT050 SCT060 02/00 A2965 RMK AO2 T00220003 Central Colorado Regional Airport KAEJ 220135Z AUTO 26003KT 10SM CLR M09/M10 A2953 RMK AO2 T10871101 Harriet Alexander Field Airport KANK 220135Z AUTO 00000KT 10SM SCT100 M01/M05 A2960 RMK AO1 T10141049 Erie Municipal Airport KEIK 220134Z AUTO 00000KT 10SM SCT065 SCT075 OVC090 01/M02 A2954 RMK AO2 T00071022 Wray Municipal Airport K2V5 220115Z AUTO 00000KT 10SM CLR 01/M02 A2951 RMK AO2
Legend: High Mountain AWOS Mountain Pass AWOS
Mountain Pass AWOS - Click symbol for weather report Pagosa Springs, Wolf Creek Pass KCPW 220134Z AUTO 22009KT OVC001 M12/M12 A2961 RMK AO2 PWINO Saguache, Saguache Municipal Airport K04V 220135Z AUTO 36006KT 10SM OVC110 M03/M07 A2955 RMK AO2 Kremmling, Mc Elroy Airfield K20V 220135Z AUTO 00000KT 7SM -SN SCT026 BKN035 OVC110 M06/M08 A2961 RMK AO2 La Veta Mountain, La Veta Pass KVTP 220127Z AUTO 04020G26KT 1 3/4SM -SN BKN002 OVC009 M07/M08 A2949 RMK AO2 Salida Mountain, Monarch Pass KMYP 220135Z AUTO 28004KT OVC001 M11/M12 A2964 RMK AO2 PWINO Cottonwood Pass K7BM 220135Z AUTO 26012G17KT 220V290 10SM SCT041 SCT049 BKN110 M02/M10 A2953 RMK AO2 Elbert Mountain, Monument Pass KMNH 220136Z AUTO 29005KT 10SM CLR M04/M06 A2953 RMK AO2 Wilkerson Pass K4BM 220135Z AUTO 34005KT 10SM SCT018 BKN035 OVC080 M08/M11 A2955 RMK AO2 Copper Mountain, Red Cliff Pass KCCU 220135Z AUTO 1 1/2SM -SN OVC001 M07/M10 A2954 RMK AO2 EMPIRE 0CO Sunlight K5SM 220135Z AUTO OVC002 M08/M10 A2963 RMK AO2 PWINO TSNO
Garmin Weather Avemco Insurance Company